Sukran S — TCKB — position and weather

sailwx.info

Track history (hours):
 
Tides and Currents Weather Stations Pressure Air Temp Water Temp Dewpoint Dewpoint Depression Visibility Wind Speed Wind Dir Waves Ship Positions

Sukran S

Last reported at 2015-May-23 21:24 UTC. Time now 2015-May-24 19:19 UTC.
Position N 40°60' E 028°60'.

Length 108 m; draft 4.2 m.

Type: Ship. MMSI: 271000056.

Date/timePositionNaut miles runAvg speedWind from/ knotsBaromVisibWave heightAir tempDewpointWater temp
2015-May-23 21:24N 40°60' E 028°60'4 4.0
2015-May-23 20:31N 40°57' E 028°56'1 1.3
2015-May-23 19:33N 40°58' E 028°55'0 0.0
2015-May-23 18:29N 40°58' E 028°55'0 0.0
2015-May-23 17:28N 40°58' E 028°55'0 0.1
2015-May-23 16:32N 40°58' E 028°56'0 0.0
2015-May-23 15:29N 40°58' E 028°56'0 0.0
2015-May-23 14:22N 40°58' E 028°56'0 0.0
2015-May-23 13:20N 40°58' E 028°56'0 0.0
2015-May-23 12:33N 40°58' E 028°56'0 0.0
2015-May-23 11:20N 40°58' E 028°56'0 0.0
2015-May-23 10:30N 40°58' E 028°56'0 0.0
2015-May-23 09:28N 40°58' E 028°56'  
2015-May-14 16:33N 37°39' E 023°44'9 9.4
2015-May-14 15:33N 37°47' E 023°38'10 9.7
2015-May-14 14:33N 37°57' E 023°36'6 0.4
2015-May-14 01:12N 38°02' E 023°33'0 0.0
2015-May-14 00:24N 38°02' E 023°33'0 0.0
2015-May-13 23:33N 38°02' E 023°33'0 0.0
2015-May-13 22:31N 38°02' E 023°33'0 0.0
2015-May-13 21:27N 38°02' E 023°33'  
Track history (hours):
 
Tides and Currents Weather Stations Pressure Air Temp Water Temp Dewpoint Dewpoint Depression Visibility Wind Speed Wind Dir Waves Ship Positions

Sukran S

Last reported at 2015-May-23 21:24 UTC. Time now 2015-May-24 19:19 UTC.
Position N 40°60' E 028°60'.

Length 108 m; draft 4.2 m.

Type: Ship. MMSI: 271000056.

Date/timePositionNaut miles runAvg speedWind from/ knotsBaromVisibWave heightAir tempDewpointWater temp
2015-May-23 21:24N 40°60' E 028°60'4 4.0
2015-May-23 20:31N 40°57' E 028°56'1 1.3
2015-May-23 19:33N 40°58' E 028°55'0 0.0
2015-May-23 18:29N 40°58' E 028°55'0 0.0
2015-May-23 17:28N 40°58' E 028°55'0 0.1
2015-May-23 16:32N 40°58' E 028°56'0 0.0
2015-May-23 15:29N 40°58' E 028°56'0 0.0
2015-May-23 14:22N 40°58' E 028°56'0 0.0
2015-May-23 13:20N 40°58' E 028°56'0 0.0
2015-May-23 12:33N 40°58' E 028°56'0 0.0
2015-May-23 11:20N 40°58' E 028°56'0 0.0
2015-May-23 10:30N 40°58' E 028°56'0 0.0
2015-May-23 09:28N 40°58' E 028°56'  
2015-May-14 16:33N 37°39' E 023°44'9 9.4
2015-May-14 15:33N 37°47' E 023°38'10 9.7
2015-May-14 14:33N 37°57' E 023°36'6 0.4
2015-May-14 01:12N 38°02' E 023°33'0 0.0
2015-May-14 00:24N 38°02' E 023°33'0 0.0
2015-May-13 23:33N 38°02' E 023°33'0 0.0
2015-May-13 22:31N 38°02' E 023°33'0 0.0
2015-May-13 21:27N 38°02' E 023°33'  

Dump ship's entire track history